sensor_id;sensor_type;location;lat;lon;timestamp;P1;durP1;ratioP1;P2;durP2;ratioP2
66886;SDS011;53798;51.680;5.976;2022-08-19T00:02:08;14.85;;;12.93;;
66886;SDS011;53798;51.680;5.976;2022-08-19T00:04:35;13.70;;;12.30;;
66886;SDS011;53798;51.680;5.976;2022-08-19T00:07:04;15.40;;;13.75;;
66886;SDS011;53798;51.680;5.976;2022-08-19T00:09:33;16.70;;;13.75;;
66886;SDS011;53798;51.680;5.976;2022-08-19T00:12:00;16.92;;;14.43;;
66886;SDS011;53798;51.680;5.976;2022-08-19T00:14:28;17.95;;;15.90;;
66886;SDS011;53798;51.680;5.976;2022-08-19T00:16:59;16.25;;;14.55;;
66886;SDS011;53798;51.680;5.976;2022-08-19T00:19:27;18.05;;;15.52;;
66886;SDS011;53798;51.680;5.976;2022-08-19T00:21:54;17.08;;;15.30;;
66886;SDS011;53798;51.680;5.976;2022-08-19T00:24:23;16.65;;;14.70;;
66886;SDS011;53798;51.680;5.976;2022-08-19T00:26:51;16.75;;;14.65;;
66886;SDS011;53798;51.680;5.976;2022-08-19T00:29:22;16.15;;;14.55;;
66886;SDS011;53798;51.680;5.976;2022-08-19T00:31:51;16.25;;;14.40;;
66886;SDS011;53798;51.680;5.976;2022-08-19T00:34:24;18.83;;;15.35;;
66886;SDS011;53798;51.680;5.976;2022-08-19T00:36:55;16.40;;;14.68;;
66886;SDS011;53798;51.680;5.976;2022-08-19T00:39:23;17.13;;;15.35;;
66886;SDS011;53798;51.680;5.976;2022-08-19T00:41:51;18.17;;;15.32;;
66886;SDS011;53798;51.680;5.976;2022-08-19T00:44:21;17.65;;;15.40;;
66886;SDS011;53798;51.680;5.976;2022-08-19T00:46:53;16.77;;;14.38;;
66886;SDS011;53798;51.680;5.976;2022-08-19T00:49:32;16.15;;;13.90;;
66886;SDS011;53798;51.680;5.976;2022-08-19T00:52:11;16.27;;;14.55;;
66886;SDS011;53798;51.680;5.976;2022-08-19T00:54:47;16.45;;;14.77;;
66886;SDS011;53798;51.680;5.976;2022-08-19T00:57:19;16.02;;;14.35;;
66886;SDS011;53798;51.680;5.976;2022-08-19T00:59:56;16.90;;;15.10;;
66886;SDS011;53798;51.680;5.976;2022-08-19T01:02:29;17.42;;;15.55;;
66886;SDS011;53798;51.680;5.976;2022-08-19T01:04:59;17.23;;;15.43;;
66886;SDS011;53798;51.680;5.976;2022-08-19T01:07:30;19.67;;;16.77;;
66886;SDS011;53798;51.680;5.976;2022-08-19T01:10:05;18.90;;;16.90;;
66886;SDS011;53798;51.680;5.976;2022-08-19T01:12:37;19.83;;;16.80;;
66886;SDS011;53798;51.680;5.976;2022-08-19T01:15:07;20.25;;;18.15;;
66886;SDS011;53798;51.680;5.976;2022-08-19T01:17:38;20.42;;;18.20;;
66886;SDS011;53798;51.680;5.976;2022-08-19T01:20:10;20.63;;;18.30;;
66886;SDS011;53798;51.680;5.976;2022-08-19T01:22:46;20.85;;;17.85;;
66886;SDS011;53798;51.680;5.976;2022-08-19T01:25:22;19.33;;;17.23;;
66886;SDS011;53798;51.680;5.976;2022-08-19T01:27:56;18.80;;;16.80;;
66886;SDS011;53798;51.680;5.976;2022-08-19T01:30:36;20.38;;;18.30;;
66886;SDS011;53798;51.680;5.976;2022-08-19T01:33:04;20.90;;;18.70;;
66886;SDS011;53798;51.680;5.976;2022-08-19T01:35:32;18.85;;;16.23;;
66886;SDS011;53798;51.680;5.976;2022-08-19T01:38:03;20.30;;;17.00;;
66886;SDS011;53798;51.680;5.976;2022-08-19T01:40:35;21.42;;;17.30;;
66886;SDS011;53798;51.680;5.976;2022-08-19T01:43:06;18.25;;;16.20;;
66886;SDS011;53798;51.680;5.976;2022-08-19T01:45:34;20.73;;;18.30;;
66886;SDS011;53798;51.680;5.976;2022-08-19T01:48:02;21.90;;;19.50;;
66886;SDS011;53798;51.680;5.976;2022-08-19T01:50:32;20.88;;;18.58;;
66886;SDS011;53798;51.680;5.976;2022-08-19T01:53:03;21.58;;;18.60;;
66886;SDS011;53798;51.680;5.976;2022-08-19T01:55:35;25.20;;;18.92;;
66886;SDS011;53798;51.680;5.976;2022-08-19T01:58:15;21.67;;;18.48;;
66886;SDS011;53798;51.680;5.976;2022-08-19T02:00:49;21.48;;;17.45;;
66886;SDS011;53798;51.680;5.976;2022-08-19T02:03:17;20.02;;;17.58;;
66886;SDS011;53798;51.680;5.976;2022-08-19T02:05:44;20.40;;;17.83;;
66886;SDS011;53798;51.680;5.976;2022-08-19T02:08:12;19.67;;;17.65;;
66886;SDS011;53798;51.680;5.976;2022-08-19T02:10:41;22.48;;;18.50;;
66886;SDS011;53798;51.680;5.976;2022-08-19T02:13:10;20.45;;;18.30;;
66886;SDS011;53798;51.680;5.976;2022-08-19T02:15:40;19.85;;;17.10;;
66886;SDS011;53798;51.680;5.976;2022-08-19T02:18:07;21.50;;;19.25;;
66886;SDS011;53798;51.680;5.976;2022-08-19T02:20:35;20.38;;;17.15;;
66886;SDS011;53798;51.680;5.976;2022-08-19T02:23:05;21.00;;;17.83;;
66886;SDS011;53798;51.680;5.976;2022-08-19T02:25:42;18.83;;;16.83;;
66886;SDS011;53798;51.680;5.976;2022-08-19T02:28:12;19.85;;;17.80;;
66886;SDS011;53798;51.680;5.976;2022-08-19T02:30:44;20.00;;;17.92;;
66886;SDS011;53798;51.680;5.976;2022-08-19T02:33:13;19.33;;;17.27;;
66886;SDS011;53798;51.680;5.976;2022-08-19T02:35:45;19.58;;;17.30;;
66886;SDS011;53798;51.680;5.976;2022-08-19T02:38:13;19.70;;;17.67;;
66886;SDS011;53798;51.680;5.976;2022-08-19T02:40:58;21.63;;;18.30;;
66886;SDS011;53798;51.680;5.976;2022-08-19T02:46:00;20.27;;;18.15;;
66886;SDS011;53798;51.680;5.976;2022-08-19T02:48:28;20.38;;;18.17;;
66886;SDS011;53798;51.680;5.976;2022-08-19T02:50:57;23.65;;;20.33;;
66886;SDS011;53798;51.680;5.976;2022-08-19T02:53:25;21.13;;;18.80;;
66886;SDS011;53798;51.680;5.976;2022-08-19T02:55:54;22.17;;;19.08;;
66886;SDS011;53798;51.680;5.976;2022-08-19T02:58:22;22.88;;;20.42;;
66886;SDS011;53798;51.680;5.976;2022-08-19T03:00:52;29.67;;;26.45;;
66886;SDS011;53798;51.680;5.976;2022-08-19T03:03:22;32.72;;;26.02;;
66886;SDS011;53798;51.680;5.976;2022-08-19T03:05:50;34.97;;;28.88;;
66886;SDS011;53798;51.680;5.976;2022-08-19T03:08:23;34.70;;;27.25;;
66886;SDS011;53798;51.680;5.976;2022-08-19T03:10:52;33.15;;;26.90;;
66886;SDS011;53798;51.680;5.976;2022-08-19T03:13:19;35.92;;;28.95;;
66886;SDS011;53798;51.680;5.976;2022-08-19T03:15:47;40.65;;;29.20;;
66886;SDS011;53798;51.680;5.976;2022-08-19T03:18:15;34.97;;;28.20;;
66886;SDS011;53798;51.680;5.976;2022-08-19T03:20:45;39.08;;;28.40;;
66886;SDS011;53798;51.680;5.976;2022-08-19T03:23:15;36.78;;;30.85;;
66886;SDS011;53798;51.680;5.976;2022-08-19T03:25:44;38.65;;;30.30;;
66886;SDS011;53798;51.680;5.976;2022-08-19T03:28:36;33.60;;;28.83;;
66886;SDS011;53798;51.680;5.976;2022-08-19T03:31:06;37.38;;;29.45;;
66886;SDS011;53798;51.680;5.976;2022-08-19T03:33:59;35.80;;;28.50;;
66886;SDS011;53798;51.680;5.976;2022-08-19T03:36:26;43.15;;;31.10;;
66886;SDS011;53798;51.680;5.976;2022-08-19T03:38:57;41.80;;;32.13;;
66886;SDS011;53798;51.680;5.976;2022-08-19T03:41:29;39.58;;;30.05;;
66886;SDS011;53798;51.680;5.976;2022-08-19T03:44:15;42.65;;;31.23;;
66886;SDS011;53798;51.680;5.976;2022-08-19T03:46:49;34.03;;;26.90;;
66886;SDS011;53798;51.680;5.976;2022-08-19T03:49:23;41.83;;;31.58;;
66886;SDS011;53798;51.680;5.976;2022-08-19T03:51:55;42.60;;;31.73;;
66886;SDS011;53798;51.680;5.976;2022-08-19T03:54:25;42.72;;;31.73;;
66886;SDS011;53798;51.680;5.976;2022-08-19T03:56:54;39.88;;;28.00;;
66886;SDS011;53798;51.680;5.976;2022-08-19T03:59:28;42.30;;;32.22;;
66886;SDS011;53798;51.680;5.976;2022-08-19T04:02:01;46.50;;;32.28;;
66886;SDS011;53798;51.680;5.976;2022-08-19T04:04:36;38.13;;;31.38;;
66886;SDS011;53798;51.680;5.976;2022-08-19T04:07:06;41.67;;;31.95;;
66886;SDS011;53798;51.680;5.976;2022-08-19T04:09:36;42.47;;;32.33;;
66886;SDS011;53798;51.680;5.976;2022-08-19T04:12:04;38.40;;;29.38;;
66886;SDS011;53798;51.680;5.976;2022-08-19T04:14:33;41.95;;;32.30;;
66886;SDS011;53798;51.680;5.976;2022-08-19T04:17:01;45.55;;;31.52;;
66886;SDS011;53798;51.680;5.976;2022-08-19T04:19:32;42.38;;;30.63;;
66886;SDS011;53798;51.680;5.976;2022-08-19T04:22:02;42.38;;;32.38;;
66886;SDS011;53798;51.680;5.976;2022-08-19T04:24:30;44.42;;;31.60;;
66886;SDS011;53798;51.680;5.976;2022-08-19T04:26:59;46.08;;;33.15;;
66886;SDS011;53798;51.680;5.976;2022-08-19T04:29:29;44.97;;;32.10;;
66886;SDS011;53798;51.680;5.976;2022-08-19T04:31:57;48.85;;;30.60;;
66886;SDS011;53798;51.680;5.976;2022-08-19T04:34:35;53.70;;;33.03;;
66886;SDS011;53798;51.680;5.976;2022-08-19T04:37:24;55.65;;;35.92;;
66886;SDS011;53798;51.680;5.976;2022-08-19T04:40:00;51.75;;;34.78;;
66886;SDS011;53798;51.680;5.976;2022-08-19T04:42:46;51.22;;;34.63;;
66886;SDS011;53798;51.680;5.976;2022-08-19T04:45:14;49.40;;;35.35;;
66886;SDS011;53798;51.680;5.976;2022-08-19T04:47:43;48.72;;;33.85;;
66886;SDS011;53798;51.680;5.976;2022-08-19T04:50:27;49.03;;;33.13;;
66886;SDS011;53798;51.680;5.976;2022-08-19T04:52:54;43.15;;;31.38;;
66886;SDS011;53798;51.680;5.976;2022-08-19T04:55:22;54.72;;;35.35;;
66886;SDS011;53798;51.680;5.976;2022-08-19T04:57:52;54.65;;;35.95;;
66886;SDS011;53798;51.680;5.976;2022-08-19T05:00:20;63.38;;;38.17;;
66886;SDS011;53798;51.680;5.976;2022-08-19T05:02:48;50.83;;;33.47;;
66886;SDS011;53798;51.680;5.976;2022-08-19T05:05:16;55.38;;;35.65;;
66886;SDS011;53798;51.680;5.976;2022-08-19T05:07:43;56.70;;;36.30;;
66886;SDS011;53798;51.680;5.976;2022-08-19T05:10:11;64.43;;;36.70;;
66886;SDS011;53798;51.680;5.976;2022-08-19T05:12:39;53.33;;;33.22;;
66886;SDS011;53798;51.680;5.976;2022-08-19T05:15:06;51.47;;;33.72;;
66886;SDS011;53798;51.680;5.976;2022-08-19T05:17:35;53.55;;;32.80;;
66886;SDS011;53798;51.680;5.976;2022-08-19T05:20:05;61.88;;;35.47;;
66886;SDS011;53798;51.680;5.976;2022-08-19T05:22:52;49.28;;;34.08;;
66886;SDS011;53798;51.680;5.976;2022-08-19T05:25:20;50.47;;;33.67;;
66886;SDS011;53798;51.680;5.976;2022-08-19T05:27:48;47.22;;;31.42;;
66886;SDS011;53798;51.680;5.976;2022-08-19T05:30:16;50.28;;;32.28;;
66886;SDS011;53798;51.680;5.976;2022-08-19T05:32:44;49.05;;;30.85;;
66886;SDS011;53798;51.680;5.976;2022-08-19T05:35:11;45.60;;;30.73;;
66886;SDS011;53798;51.680;5.976;2022-08-19T05:37:39;39.40;;;29.88;;
66886;SDS011;53798;51.680;5.976;2022-08-19T05:40:08;41.50;;;28.88;;
66886;SDS011;53798;51.680;5.976;2022-08-19T05:42:36;36.95;;;27.23;;
66886;SDS011;53798;51.680;5.976;2022-08-19T05:45:04;36.08;;;26.70;;
66886;SDS011;53798;51.680;5.976;2022-08-19T05:47:32;41.30;;;26.42;;
66886;SDS011;53798;51.680;5.976;2022-08-19T05:49:59;38.65;;;27.90;;
66886;SDS011;53798;51.680;5.976;2022-08-19T05:52:30;38.50;;;29.10;;
66886;SDS011;53798;51.680;5.976;2022-08-19T05:54:59;36.92;;;26.17;;
66886;SDS011;53798;51.680;5.976;2022-08-19T05:57:26;34.45;;;26.70;;
66886;SDS011;53798;51.680;5.976;2022-08-19T05:59:55;33.33;;;25.40;;
66886;SDS011;53798;51.680;5.976;2022-08-19T06:02:25;41.40;;;28.15;;
66886;SDS011;53798;51.680;5.976;2022-08-19T06:04:54;38.97;;;27.95;;
66886;SDS011;53798;51.680;5.976;2022-08-19T06:07:22;40.05;;;29.00;;
66886;SDS011;53798;51.680;5.976;2022-08-19T06:09:49;49.53;;;29.77;;
66886;SDS011;53798;51.680;5.976;2022-08-19T06:12:27;39.65;;;28.33;;
66886;SDS011;53798;51.680;5.976;2022-08-19T06:14:59;39.33;;;28.13;;
66886;SDS011;53798;51.680;5.976;2022-08-19T06:17:40;40.80;;;28.73;;
66886;SDS011;53798;51.680;5.976;2022-08-19T06:20:12;38.83;;;27.58;;
66886;SDS011;53798;51.680;5.976;2022-08-19T06:22:42;49.65;;;29.63;;
66886;SDS011;53798;51.680;5.976;2022-08-19T06:25:18;51.42;;;32.30;;
66886;SDS011;53798;51.680;5.976;2022-08-19T06:27:45;53.63;;;33.92;;
66886;SDS011;53798;51.680;5.976;2022-08-19T06:30:33;55.28;;;34.80;;
66886;SDS011;53798;51.680;5.976;2022-08-19T06:33:00;51.45;;;32.28;;
66886;SDS011;53798;51.680;5.976;2022-08-19T06:35:27;58.20;;;33.50;;
66886;SDS011;53798;51.680;5.976;2022-08-19T06:37:56;54.83;;;33.70;;
66886;SDS011;53798;51.680;5.976;2022-08-19T06:40:23;55.40;;;34.60;;
66886;SDS011;53798;51.680;5.976;2022-08-19T06:42:50;55.42;;;36.30;;
66886;SDS011;53798;51.680;5.976;2022-08-19T06:45:21;62.30;;;37.05;;
66886;SDS011;53798;51.680;5.976;2022-08-19T06:47:51;54.13;;;34.15;;
66886;SDS011;53798;51.680;5.976;2022-08-19T06:50:21;59.53;;;35.47;;
66886;SDS011;53798;51.680;5.976;2022-08-19T06:52:51;53.50;;;36.30;;
66886;SDS011;53798;51.680;5.976;2022-08-19T06:55:20;52.15;;;34.33;;
66886;SDS011;53798;51.680;5.976;2022-08-19T06:57:47;60.90;;;37.42;;
66886;SDS011;53798;51.680;5.976;2022-08-19T07:00:15;67.20;;;38.85;;
66886;SDS011;53798;51.680;5.976;2022-08-19T07:02:43;54.28;;;35.67;;
66886;SDS011;53798;51.680;5.976;2022-08-19T07:05:21;54.90;;;33.95;;
66886;SDS011;53798;51.680;5.976;2022-08-19T07:07:49;60.42;;;36.20;;
66886;SDS011;53798;51.680;5.976;2022-08-19T07:10:16;52.88;;;33.47;;
66886;SDS011;53798;51.680;5.976;2022-08-19T07:12:44;53.85;;;33.33;;
66886;SDS011;53798;51.680;5.976;2022-08-19T07:15:12;47.88;;;30.33;;
66886;SDS011;53798;51.680;5.976;2022-08-19T07:17:39;49.25;;;32.25;;
66886;SDS011;53798;51.680;5.976;2022-08-19T07:20:09;45.15;;;29.83;;
66886;SDS011;53798;51.680;5.976;2022-08-19T07:22:38;47.17;;;30.38;;
66886;SDS011;53798;51.680;5.976;2022-08-19T07:25:06;50.20;;;33.05;;
66886;SDS011;53798;51.680;5.976;2022-08-19T07:27:36;47.63;;;32.45;;
66886;SDS011;53798;51.680;5.976;2022-08-19T07:30:06;46.85;;;31.73;;
66886;SDS011;53798;51.680;5.976;2022-08-19T07:32:38;49.70;;;33.15;;
66886;SDS011;53798;51.680;5.976;2022-08-19T07:35:06;46.20;;;33.13;;
66886;SDS011;53798;51.680;5.976;2022-08-19T07:37:36;43.90;;;30.40;;
66886;SDS011;53798;51.680;5.976;2022-08-19T07:40:05;46.95;;;30.02;;
66886;SDS011;53798;51.680;5.976;2022-08-19T07:42:34;43.05;;;29.45;;
66886;SDS011;53798;51.680;5.976;2022-08-19T07:45:02;45.20;;;30.10;;
66886;SDS011;53798;51.680;5.976;2022-08-19T07:47:32;43.03;;;29.50;;
66886;SDS011;53798;51.680;5.976;2022-08-19T07:50:17;46.50;;;31.90;;
66886;SDS011;53798;51.680;5.976;2022-08-19T07:52:47;45.38;;;29.90;;
66886;SDS011;53798;51.680;5.976;2022-08-19T07:55:18;43.90;;;30.33;;
66886;SDS011;53798;51.680;5.976;2022-08-19T07:58:10;43.40;;;27.65;;
66886;SDS011;53798;51.680;5.976;2022-08-19T08:00:40;40.90;;;28.83;;
66886;SDS011;53798;51.680;5.976;2022-08-19T08:03:09;38.08;;;26.38;;
66886;SDS011;53798;51.680;5.976;2022-08-19T08:05:38;39.75;;;27.05;;
66886;SDS011;53798;51.680;5.976;2022-08-19T08:08:23;46.45;;;27.88;;
66886;SDS011;53798;51.680;5.976;2022-08-19T08:11:15;48.17;;;26.88;;
66886;SDS011;53798;51.680;5.976;2022-08-19T08:13:46;35.60;;;24.67;;
66886;SDS011;53798;51.680;5.976;2022-08-19T08:16:31;45.83;;;25.35;;
66886;SDS011;53798;51.680;5.976;2022-08-19T08:19:13;38.72;;;24.65;;
66886;SDS011;53798;51.680;5.976;2022-08-19T08:21:52;36.25;;;25.17;;
66886;SDS011;53798;51.680;5.976;2022-08-19T08:24:22;33.72;;;23.52;;
66886;SDS011;53798;51.680;5.976;2022-08-19T08:26:54;36.17;;;21.95;;
66886;SDS011;53798;51.680;5.976;2022-08-19T08:29:23;43.47;;;23.30;;
66886;SDS011;53798;51.680;5.976;2022-08-19T08:32:00;37.47;;;25.15;;
66886;SDS011;53798;51.680;5.976;2022-08-19T08:34:39;33.33;;;23.35;;
66886;SDS011;53798;51.680;5.976;2022-08-19T08:37:07;35.67;;;23.45;;
66886;SDS011;53798;51.680;5.976;2022-08-19T08:39:34;31.08;;;22.40;;
66886;SDS011;53798;51.680;5.976;2022-08-19T08:42:06;34.95;;;24.23;;
66886;SDS011;53798;51.680;5.976;2022-08-19T08:44:48;34.25;;;23.38;;
66886;SDS011;53798;51.680;5.976;2022-08-19T08:47:25;35.47;;;24.67;;
66886;SDS011;53798;51.680;5.976;2022-08-19T08:50:05;35.03;;;24.80;;
66886;SDS011;53798;51.680;5.976;2022-08-19T08:52:43;34.63;;;22.23;;
66886;SDS011;53798;51.680;5.976;2022-08-19T08:55:19;34.97;;;21.13;;
66886;SDS011;53798;51.680;5.976;2022-08-19T08:58:13;33.47;;;20.38;;
66886;SDS011;53798;51.680;5.976;2022-08-19T09:00:50;29.75;;;20.83;;
66886;SDS011;53798;51.680;5.976;2022-08-19T09:03:19;28.65;;;18.33;;
66886;SDS011;53798;51.680;5.976;2022-08-19T09:06:09;27.20;;;18.55;;
66886;SDS011;53798;51.680;5.976;2022-08-19T09:15:00;23.67;;;14.93;;
66886;SDS011;53798;51.680;5.976;2022-08-19T09:17:35;26.08;;;14.93;;
66886;SDS011;53798;51.680;5.976;2022-08-19T09:20:12;30.50;;;15.75;;
66886;SDS011;53798;51.680;5.976;2022-08-19T09:22:46;22.88;;;14.73;;
66886;SDS011;53798;51.680;5.976;2022-08-19T09:25:16;23.27;;;13.70;;
66886;SDS011;53798;51.680;5.976;2022-08-19T09:27:55;27.60;;;12.50;;
66886;SDS011;53798;51.680;5.976;2022-08-19T09:30:36;22.13;;;12.57;;
66886;SDS011;53798;51.680;5.976;2022-08-19T09:33:08;18.40;;;12.07;;
66886;SDS011;53798;51.680;5.976;2022-08-19T09:35:35;19.65;;;11.88;;
66886;SDS011;53798;51.680;5.976;2022-08-19T09:38:19;20.92;;;10.88;;
66886;SDS011;53798;51.680;5.976;2022-08-19T09:40:48;14.52;;;9.73;;
66886;SDS011;53798;51.680;5.976;2022-08-19T09:43:16;18.42;;;9.20;;
66886;SDS011;53798;51.680;5.976;2022-08-19T09:46:00;17.35;;;8.73;;
66886;SDS011;53798;51.680;5.976;2022-08-19T09:48:28;18.85;;;10.15;;
66886;SDS011;53798;51.680;5.976;2022-08-19T09:51:01;14.60;;;9.93;;
66886;SDS011;53798;51.680;5.976;2022-08-19T09:53:37;13.63;;;8.75;;
66886;SDS011;53798;51.680;5.976;2022-08-19T09:56:06;13.88;;;9.70;;
66886;SDS011;53798;51.680;5.976;2022-08-19T09:58:35;13.60;;;9.95;;
66886;SDS011;53798;51.680;5.976;2022-08-19T10:01:04;14.07;;;10.73;;
66886;SDS011;53798;51.680;5.976;2022-08-19T10:03:33;16.90;;;12.07;;
66886;SDS011;53798;51.680;5.976;2022-08-19T10:06:03;17.90;;;12.50;;
66886;SDS011;53798;51.680;5.976;2022-08-19T10:08:43;21.17;;;14.63;;
66886;SDS011;53798;51.680;5.976;2022-08-19T10:11:16;27.15;;;17.45;;
66886;SDS011;53798;51.680;5.976;2022-08-19T10:14:01;19.63;;;14.57;;
66886;SDS011;53798;51.680;5.976;2022-08-19T10:16:29;21.25;;;13.77;;
66886;SDS011;53798;51.680;5.976;2022-08-19T10:19:05;25.20;;;16.35;;
66886;SDS011;53798;51.680;5.976;2022-08-19T10:21:32;25.30;;;20.20;;
66886;SDS011;53798;51.680;5.976;2022-08-19T10:24:02;26.65;;;20.30;;
66886;SDS011;53798;51.680;5.976;2022-08-19T10:26:33;28.17;;;21.65;;
66886;SDS011;53798;51.680;5.976;2022-08-19T10:29:04;34.65;;;22.23;;
66886;SDS011;53798;51.680;5.976;2022-08-19T10:31:35;26.67;;;20.67;;
66886;SDS011;53798;51.680;5.976;2022-08-19T10:34:22;31.30;;;21.92;;
66886;SDS011;53798;51.680;5.976;2022-08-19T10:36:54;30.63;;;20.90;;
66886;SDS011;53798;51.680;5.976;2022-08-19T10:39:29;26.35;;;20.80;;
66886;SDS011;53798;51.680;5.976;2022-08-19T10:42:06;30.27;;;21.23;;
66886;SDS011;53798;51.680;5.976;2022-08-19T10:44:37;32.08;;;21.80;;
66886;SDS011;53798;51.680;5.976;2022-08-19T10:47:04;29.20;;;20.15;;
66886;SDS011;53798;51.680;5.976;2022-08-19T10:49:50;28.02;;;20.45;;
66886;SDS011;53798;51.680;5.976;2022-08-19T10:52:39;24.75;;;19.95;;
66886;SDS011;53798;51.680;5.976;2022-08-19T10:55:22;23.88;;;15.57;;
66886;SDS011;53798;51.680;5.976;2022-08-19T10:58:13;32.10;;;19.70;;
66886;SDS011;53798;51.680;5.976;2022-08-19T11:00:50;26.77;;;17.55;;
66886;SDS011;53798;51.680;5.976;2022-08-19T11:03:25;25.67;;;17.48;;
66886;SDS011;53798;51.680;5.976;2022-08-19T11:06:00;22.75;;;17.02;;
66886;SDS011;53798;51.680;5.976;2022-08-19T11:08:31;19.63;;;15.60;;
66886;SDS011;53798;51.680;5.976;2022-08-19T11:11:01;22.42;;;16.45;;
66886;SDS011;53798;51.680;5.976;2022-08-19T11:13:30;22.20;;;17.10;;
66886;SDS011;53798;51.680;5.976;2022-08-19T11:16:02;24.20;;;16.45;;
66886;SDS011;53798;51.680;5.976;2022-08-19T11:18:37;24.83;;;17.02;;
66886;SDS011;53798;51.680;5.976;2022-08-19T11:21:11;23.17;;;17.35;;
66886;SDS011;53798;51.680;5.976;2022-08-19T11:23:43;22.33;;;17.20;;
66886;SDS011;53798;51.680;5.976;2022-08-19T11:26:12;22.15;;;16.48;;
66886;SDS011;53798;51.680;5.976;2022-08-19T11:28:42;29.63;;;16.45;;
66886;SDS011;53798;51.680;5.976;2022-08-19T11:31:13;21.85;;;15.40;;
66886;SDS011;53798;51.680;5.976;2022-08-19T11:33:43;22.27;;;16.08;;
66886;SDS011;53798;51.680;5.976;2022-08-19T11:36:13;20.58;;;15.45;;
66886;SDS011;53798;51.680;5.976;2022-08-19T11:38:43;26.67;;;14.48;;
66886;SDS011;53798;51.680;5.976;2022-08-19T11:41:11;20.13;;;14.45;;
66886;SDS011;53798;51.680;5.976;2022-08-19T11:43:38;21.02;;;15.57;;
66886;SDS011;53798;51.680;5.976;2022-08-19T11:46:07;20.13;;;15.38;;
66886;SDS011;53798;51.680;5.976;2022-08-19T11:48:38;25.75;;;14.70;;
66886;SDS011;53798;51.680;5.976;2022-08-19T11:51:07;18.95;;;12.88;;
66886;SDS011;53798;51.680;5.976;2022-08-19T11:53:42;21.63;;;13.60;;
66886;SDS011;53798;51.680;5.976;2022-08-19T11:56:09;22.70;;;14.75;;
66886;SDS011;53798;51.680;5.976;2022-08-19T11:58:37;22.17;;;16.45;;
66886;SDS011;53798;51.680;5.976;2022-08-19T12:01:07;20.75;;;15.15;;
66886;SDS011;53798;51.680;5.976;2022-08-19T12:03:38;24.20;;;16.08;;
66886;SDS011;53798;51.680;5.976;2022-08-19T12:06:06;59.13;;;18.70;;
66886;SDS011;53798;51.680;5.976;2022-08-19T12:08:39;25.25;;;17.85;;
66886;SDS011;53798;51.680;5.976;2022-08-19T12:11:09;26.90;;;18.55;;
66886;SDS011;53798;51.680;5.976;2022-08-19T12:13:38;33.28;;;20.05;;
66886;SDS011;53798;51.680;5.976;2022-08-19T12:16:09;26.17;;;19.10;;
66886;SDS011;53798;51.680;5.976;2022-08-19T12:18:41;24.75;;;17.15;;
66886;SDS011;53798;51.680;5.976;2022-08-19T12:21:26;22.90;;;15.27;;
66886;SDS011;53798;51.680;5.976;2022-08-19T12:23:55;18.38;;;13.30;;
66886;SDS011;53798;51.680;5.976;2022-08-19T12:26:25;17.52;;;12.73;;
66886;SDS011;53798;51.680;5.976;2022-08-19T12:28:55;20.75;;;13.65;;
66886;SDS011;53798;51.680;5.976;2022-08-19T12:31:22;23.55;;;15.13;;
66886;SDS011;53798;51.680;5.976;2022-08-19T12:33:49;22.45;;;15.65;;
66886;SDS011;53798;51.680;5.976;2022-08-19T12:36:18;21.02;;;16.77;;
66886;SDS011;53798;51.680;5.976;2022-08-19T12:38:45;19.42;;;14.95;;
66886;SDS011;53798;51.680;5.976;2022-08-19T12:41:14;17.80;;;14.00;;
66886;SDS011;53798;51.680;5.976;2022-08-19T12:43:45;26.88;;;15.98;;
66886;SDS011;53798;51.680;5.976;2022-08-19T12:46:12;19.98;;;14.32;;
66886;SDS011;53798;51.680;5.976;2022-08-19T12:48:42;22.17;;;15.85;;
66886;SDS011;53798;51.680;5.976;2022-08-19T12:51:12;18.77;;;14.43;;
66886;SDS011;53798;51.680;5.976;2022-08-19T12:53:44;23.00;;;15.80;;
66886;SDS011;53798;51.680;5.976;2022-08-19T12:56:12;21.70;;;16.02;;
66886;SDS011;53798;51.680;5.976;2022-08-19T12:58:41;20.33;;;15.30;;
66886;SDS011;53798;51.680;5.976;2022-08-19T13:01:16;20.27;;;16.38;;
66886;SDS011;53798;51.680;5.976;2022-08-19T13:03:48;23.27;;;16.70;;
66886;SDS011;53798;51.680;5.976;2022-08-19T13:06:16;32.42;;;17.65;;
66886;SDS011;53798;51.680;5.976;2022-08-19T13:08:46;51.08;;;18.38;;
66886;SDS011;53798;51.680;5.976;2022-08-19T13:11:14;22.23;;;15.60;;
66886;SDS011;53798;51.680;5.976;2022-08-19T13:13:45;23.17;;;15.75;;
66886;SDS011;53798;51.680;5.976;2022-08-19T13:16:15;24.95;;;15.68;;
66886;SDS011;53798;51.680;5.976;2022-08-19T13:18:43;21.83;;;14.30;;
66886;SDS011;53798;51.680;5.976;2022-08-19T13:21:18;20.35;;;14.32;;
66886;SDS011;53798;51.680;5.976;2022-08-19T13:23:49;18.67;;;14.02;;
66886;SDS011;53798;51.680;5.976;2022-08-19T13:26:18;22.50;;;14.95;;
66886;SDS011;53798;51.680;5.976;2022-08-19T13:28:45;21.30;;;15.20;;
66886;SDS011;53798;51.680;5.976;2022-08-19T13:31:33;20.42;;;14.48;;
66886;SDS011;53798;51.680;5.976;2022-08-19T13:34:27;18.88;;;15.40;;
66886;SDS011;53798;51.680;5.976;2022-08-19T13:36:59;22.42;;;14.70;;
66886;SDS011;53798;51.680;5.976;2022-08-19T13:39:30;20.95;;;13.85;;
66886;SDS011;53798;51.680;5.976;2022-08-19T13:41:59;21.15;;;13.18;;
66886;SDS011;53798;51.680;5.976;2022-08-19T13:44:27;23.98;;;13.25;;
66886;SDS011;53798;51.680;5.976;2022-08-19T13:47:02;21.30;;;15.10;;
66886;SDS011;53798;51.680;5.976;2022-08-19T13:49:34;18.20;;;14.40;;
66886;SDS011;53798;51.680;5.976;2022-08-19T13:52:04;19.58;;;14.48;;
66886;SDS011;53798;51.680;5.976;2022-08-19T13:54:32;18.45;;;14.07;;
66886;SDS011;53798;51.680;5.976;2022-08-19T13:56:59;19.92;;;14.13;;
66886;SDS011;53798;51.680;5.976;2022-08-19T13:59:26;19.83;;;14.55;;
66886;SDS011;53798;51.680;5.976;2022-08-19T14:01:57;15.77;;;12.38;;
66886;SDS011;53798;51.680;5.976;2022-08-19T14:04:26;28.73;;;13.90;;
66886;SDS011;53798;51.680;5.976;2022-08-19T14:06:54;22.77;;;13.48;;
66886;SDS011;53798;51.680;5.976;2022-08-19T14:09:21;19.92;;;13.00;;
66886;SDS011;53798;51.680;5.976;2022-08-19T14:11:48;15.73;;;11.13;;
66886;SDS011;53798;51.680;5.976;2022-08-19T14:14:17;17.05;;;11.15;;
66886;SDS011;53798;51.680;5.976;2022-08-19T14:16:44;20.15;;;12.10;;
66886;SDS011;53798;51.680;5.976;2022-08-19T14:19:11;15.32;;;11.15;;
66886;SDS011;53798;51.680;5.976;2022-08-19T14:21:38;16.60;;;13.07;;
66886;SDS011;53798;51.680;5.976;2022-08-19T14:24:07;18.25;;;12.00;;
66886;SDS011;53798;51.680;5.976;2022-08-19T14:26:35;20.10;;;13.13;;
66886;SDS011;53798;51.680;5.976;2022-08-19T14:29:02;18.85;;;13.15;;
66886;SDS011;53798;51.680;5.976;2022-08-19T14:31:29;19.02;;;13.40;;
66886;SDS011;53798;51.680;5.976;2022-08-19T14:33:56;19.65;;;13.82;;
66886;SDS011;53798;51.680;5.976;2022-08-19T14:36:23;18.45;;;14.50;;
66886;SDS011;53798;51.680;5.976;2022-08-19T14:38:51;21.23;;;15.10;;
66886;SDS011;53798;51.680;5.976;2022-08-19T14:41:19;22.00;;;15.90;;
66886;SDS011;53798;51.680;5.976;2022-08-19T14:43:50;25.20;;;16.17;;
66886;SDS011;53798;51.680;5.976;2022-08-19T14:46:20;20.80;;;15.65;;
66886;SDS011;53798;51.680;5.976;2022-08-19T14:48:54;22.85;;;15.80;;
66886;SDS011;53798;51.680;5.976;2022-08-19T14:51:25;18.92;;;13.82;;
66886;SDS011;53798;51.680;5.976;2022-08-19T14:53:54;17.73;;;12.90;;
66886;SDS011;53798;51.680;5.976;2022-08-19T14:56:23;22.15;;;15.18;;